Northumberland, United Kingdom
Current Conditions -  °F | °C
As of 5:50 AM on Friday 31 Oct 2014 (Local Time) from EGQM Reporting Station
Haze Haze  
Wind Chill: 55°   Ceiling: 16000
Heat Index: 55°   Visibility: 1.9mi
Dew Point: 55°   Wind: 7mph
Humidity: 100%   Direction: 160°SSE
Pressure: 29.85"   Gusts: NA
Location:  55.3°N, 2.1°W
Report Text: EGQM 310550Z AUTO 16006KT 3100 BR BKN160/// 13/13 Q1011
Loading
Personal Weather Stations






























Interactive Weather Map
Tropical Storm Tracking
New forecast layout! Learn more

10-Day Weather Forecast

Advertisements
Track Severe Weather on mobile